createdAt,value
2023-02-27T00:00:09.175Z,429.00
2023-02-27T00:01:09.177Z,428.00
2023-02-27T00:02:09.190Z,428.00
2023-02-27T00:03:09.186Z,427.00
2023-02-27T00:04:09.315Z,427.00
2023-02-27T00:05:09.245Z,427.00
2023-02-27T00:06:09.237Z,428.00
2023-02-27T00:07:09.264Z,429.00
2023-02-27T00:08:09.293Z,429.00
2023-02-27T00:09:09.415Z,430.00
2023-02-27T00:10:09.298Z,429.00
2023-02-27T00:11:09.389Z,428.00
2023-02-27T00:12:09.415Z,428.00
2023-02-27T00:13:09.510Z,428.00
2023-02-27T00:14:09.573Z,429.00
2023-02-27T00:15:09.611Z,429.00
2023-02-27T00:16:12.539Z,429.00
2023-02-27T00:17:09.681Z,430.00
2023-02-27T00:18:09.707Z,428.00
2023-02-27T00:19:09.720Z,426.00
2023-02-27T00:20:09.683Z,425.00
2023-02-27T00:21:09.726Z,426.00
2023-02-27T00:22:09.725Z,426.00
2023-02-27T00:23:09.751Z,425.00
2023-02-27T00:24:09.741Z,422.00
2023-02-27T00:25:09.769Z,423.00
2023-02-27T00:26:09.782Z,424.00
2023-02-27T00:27:09.766Z,427.00
2023-02-27T00:28:09.809Z,429.00
2023-02-27T00:29:09.785Z,431.00
2023-02-27T00:30:09.832Z,432.00
2023-02-27T00:31:09.894Z,433.00
2023-02-27T00:32:09.917Z,434.00
2023-02-27T00:33:09.799Z,433.00
2023-02-27T00:34:09.867Z,436.00
2023-02-27T00:35:09.830Z,434.00
2023-02-27T00:36:09.841Z,432.00
2023-02-27T00:37:09.824Z,428.00
2023-02-27T00:38:09.879Z,427.00
2023-02-27T00:39:09.897Z,430.00
2023-02-27T00:40:09.873Z,431.00
2023-02-27T00:41:09.885Z,431.00
2023-02-27T00:42:09.892Z,430.00
2023-02-27T00:43:09.910Z,428.00
2023-02-27T00:44:09.933Z,427.00
2023-02-27T00:45:09.920Z,427.00
2023-02-27T00:46:09.966Z,428.00
2023-02-27T00:47:09.932Z,427.00
2023-02-27T00:48:09.924Z,426.00
2023-02-27T00:49:09.929Z,427.00
2023-02-27T00:50:09.951Z,427.00
2023-02-27T00:51:09.975Z,425.00
2023-02-27T00:52:09.968Z,425.00
2023-02-27T00:53:09.958Z,425.00
2023-02-27T00:54:09.949Z,426.00
2023-02-27T00:55:09.967Z,425.00
2023-02-27T00:56:09.989Z,425.00
2023-02-27T00:57:09.998Z,425.00
2023-02-27T00:58:10.002Z,426.00
2023-02-27T00:59:10.010Z,426.00
2023-02-27T01:00:09.984Z,425.00
2023-02-27T01:01:10.057Z,424.00
2023-02-27T01:02:10.156Z,423.00
2023-02-27T01:03:09.995Z,421.00
2023-02-27T01:04:10.012Z,424.00
2023-02-27T01:05:10.011Z,424.00
2023-02-27T01:06:10.016Z,424.00
2023-02-27T01:07:10.051Z,426.00
2023-02-27T01:08:10.044Z,425.00
2023-02-27T01:09:10.054Z,424.00
2023-02-27T01:10:10.130Z,425.00
2023-02-27T01:11:10.064Z,426.00
2023-02-27T01:12:10.036Z,426.00
2023-02-27T01:13:11.302Z,427.00
2023-02-27T01:14:10.034Z,428.00
2023-02-27T01:15:10.087Z,427.00
2023-02-27T01:16:10.126Z,425.00
2023-02-27T01:17:10.191Z,425.00
2023-02-27T01:18:10.193Z,428.00
2023-02-27T01:19:10.218Z,429.00
2023-02-27T01:20:10.225Z,431.00
2023-02-27T01:21:10.276Z,431.00
2023-02-27T01:22:10.278Z,429.00
2023-02-27T01:23:10.297Z,430.00
2023-02-27T01:24:10.338Z,429.00
2023-02-27T01:25:10.367Z,429.00
2023-02-27T01:26:10.365Z,430.00
2023-02-27T01:27:10.402Z,431.00
2023-02-27T01:28:10.421Z,432.00
2023-02-27T01:29:10.460Z,430.00
2023-02-27T01:30:10.465Z,430.00
2023-02-27T01:31:10.538Z,434.00
2023-02-27T01:32:10.612Z,431.00
2023-02-27T01:33:10.551Z,430.00
2023-02-27T01:34:10.571Z,429.00
2023-02-27T01:35:10.644Z,430.00
2023-02-27T01:36:10.651Z,429.00
2023-02-27T01:37:10.651Z,429.00
2023-02-27T01:38:10.653Z,432.00
2023-02-27T01:39:10.657Z,432.00
2023-02-27T01:40:10.708Z,435.00
2023-02-27T01:41:10.719Z,435.00
2023-02-27T01:42:12.938Z,438.00
2023-02-27T01:43:10.733Z,439.00
2023-02-27T01:44:10.745Z,436.00
2023-02-27T01:45:10.785Z,434.00
2023-02-27T01:46:10.884Z,433.00
2023-02-27T01:47:10.839Z,434.00
2023-02-27T01:48:10.870Z,434.00
2023-02-27T01:49:10.876Z,436.00
2023-02-27T01:50:10.900Z,436.00
2023-02-27T01:51:10.905Z,433.00
2023-02-27T01:52:10.892Z,435.00
2023-02-27T01:53:10.932Z,436.00
2023-02-27T01:54:11.727Z,435.00
2023-02-27T01:55:10.955Z,436.00
2023-02-27T01:56:10.934Z,436.00
2023-02-27T01:57:10.977Z,436.00
2023-02-27T01:58:10.997Z,434.00
2023-02-27T01:59:11.013Z,433.00
2023-02-27T02:00:11.044Z,430.00
2023-02-27T02:01:11.073Z,432.00
2023-02-27T02:02:11.085Z,431.00
2023-02-27T02:03:11.041Z,432.00
2023-02-27T02:04:11.055Z,429.00
2023-02-27T02:05:11.089Z,428.00
2023-02-27T02:06:11.099Z,429.00
2023-02-27T02:07:11.083Z,429.00
2023-02-27T02:08:11.065Z,430.00
2023-02-27T02:09:11.081Z,432.00
2023-02-27T02:10:11.093Z,433.00
2023-02-27T02:11:11.140Z,436.00
2023-02-27T02:12:11.138Z,433.00
2023-02-27T02:13:11.135Z,435.00
2023-02-27T02:14:11.138Z,436.00
2023-02-27T02:15:11.196Z,437.00
2023-02-27T02:16:11.157Z,436.00
2023-02-27T02:17:11.186Z,435.00
2023-02-27T02:18:11.211Z,434.00
2023-02-27T02:19:11.187Z,435.00
2023-02-27T02:20:11.204Z,436.00
2023-02-27T02:21:11.261Z,436.00
2023-02-27T02:22:11.203Z,437.00
2023-02-27T02:23:11.243Z,435.00
2023-02-27T02:24:11.261Z,435.00
2023-02-27T02:25:11.267Z,438.00
2023-02-27T02:26:11.277Z,439.00
2023-02-27T02:27:11.279Z,441.00
2023-02-27T02:28:11.279Z,438.00
2023-02-27T02:29:11.262Z,436.00
2023-02-27T02:30:11.276Z,437.00
2023-02-27T02:31:11.426Z,436.00
2023-02-27T02:32:11.311Z,435.00
2023-02-27T02:33:11.307Z,437.00
2023-02-27T02:34:11.357Z,437.00
2023-02-27T02:35:11.358Z,438.00
2023-02-27T02:36:11.365Z,436.00
2023-02-27T02:37:11.404Z,438.00
2023-02-27T02:38:11.378Z,438.00
2023-02-27T02:39:11.366Z,437.00
2023-02-27T02:40:11.418Z,434.00
2023-02-27T02:41:11.377Z,434.00
2023-02-27T02:42:11.429Z,433.00
2023-02-27T02:43:11.403Z,434.00
2023-02-27T02:44:11.415Z,434.00
2023-02-27T02:45:11.424Z,431.00
2023-02-27T02:46:11.501Z,433.00
2023-02-27T02:47:11.444Z,434.00
2023-02-27T02:48:11.492Z,433.00
2023-02-27T02:49:11.501Z,435.00
2023-02-27T02:50:11.503Z,436.00
2023-02-27T02:51:11.536Z,438.00
2023-02-27T02:52:11.523Z,435.00
2023-02-27T02:53:11.532Z,434.00
2023-02-27T02:54:11.548Z,434.00
2023-02-27T03:30:12.397Z,441.00
2023-02-27T03:31:12.495Z,440.00
2023-02-27T03:32:12.511Z,437.00
2023-02-27T03:33:12.506Z,436.00
2023-02-27T03:34:12.535Z,435.00
2023-02-27T03:35:12.534Z,435.00
2023-02-27T03:36:12.554Z,437.00
2023-02-27T03:37:12.606Z,437.00
2023-02-27T03:38:12.633Z,438.00
2023-02-27T03:39:12.685Z,438.00
2023-02-27T03:40:12.719Z,438.00
2023-02-27T03:41:12.823Z,439.00
2023-02-27T03:42:12.840Z,441.00
2023-02-27T03:43:12.897Z,442.00
2023-02-27T03:44:12.931Z,443.00
2023-02-27T03:45:12.990Z,444.00
2023-02-27T03:46:13.044Z,441.00
2023-02-27T03:47:13.069Z,440.00
2023-02-27T03:48:13.113Z,440.00
2023-02-27T03:49:13.116Z,436.00
2023-02-27T03:50:13.197Z,437.00
2023-02-27T03:51:13.198Z,436.00
2023-02-27T03:52:13.253Z,433.00
2023-02-27T03:53:13.261Z,434.00
2023-02-27T03:54:13.333Z,435.00
2023-02-27T03:55:13.422Z,435.00
2023-02-27T03:56:13.437Z,437.00
2023-02-27T03:59:13.643Z,435.00
2023-02-27T04:00:13.666Z,436.00
2023-02-27T04:01:13.736Z,438.00
2023-02-27T04:02:13.796Z,438.00
2023-02-27T04:03:13.859Z,438.00
2023-02-27T04:04:13.885Z,439.00
2023-02-27T04:05:13.881Z,440.00
2023-02-27T04:06:13.981Z,439.00
2023-02-27T04:07:14.034Z,437.00
2023-02-27T04:08:14.066Z,436.00
2023-02-27T04:09:14.123Z,435.00
2023-02-27T04:10:14.193Z,437.00
2023-02-27T04:11:14.226Z,437.00
2023-02-27T04:12:14.310Z,438.00
2023-02-27T04:13:14.346Z,440.00
2023-02-27T04:14:14.376Z,441.00
2023-02-27T04:15:14.424Z,440.00
2023-02-27T04:16:14.494Z,438.00
2023-02-27T04:17:14.592Z,436.00
2023-02-27T04:18:14.604Z,435.00
2023-02-27T04:19:14.708Z,434.00
2023-02-27T04:20:14.709Z,434.00
2023-02-27T04:21:14.820Z,435.00
2023-02-27T04:22:14.853Z,437.00
2023-02-27T04:23:14.870Z,438.00
2023-02-27T04:24:14.889Z,438.00
2023-02-27T04:25:14.982Z,440.00
2023-02-27T04:26:15.036Z,440.00
2023-02-27T04:27:15.096Z,443.00
2023-02-27T04:28:15.123Z,442.00
2023-02-27T04:29:15.200Z,441.00
2023-02-27T04:30:15.255Z,440.00
2023-02-27T04:31:15.447Z,442.00
2023-02-27T04:32:15.498Z,440.00
2023-02-27T04:33:15.366Z,440.00
2023-02-27T04:34:15.417Z,440.00
2023-02-27T04:35:15.452Z,441.00
2023-02-27T04:36:15.514Z,439.00
2023-02-27T04:37:15.538Z,437.00
2023-02-27T04:38:15.604Z,438.00
2023-02-27T04:39:15.669Z,438.00
2023-02-27T04:40:15.698Z,435.00
2023-02-27T04:41:15.757Z,433.00
2023-02-27T04:42:15.805Z,432.00
2023-02-27T04:43:15.881Z,432.00
2023-02-27T04:44:15.878Z,433.00
2023-02-27T04:45:16.067Z,434.00
2023-02-27T04:46:16.022Z,433.00
2023-02-27T04:47:16.154Z,434.00
2023-02-27T04:48:16.089Z,434.00
2023-02-27T04:49:16.122Z,433.00
2023-02-27T04:50:16.202Z,432.00
2023-02-27T04:51:16.257Z,432.00
2023-02-27T04:52:16.294Z,436.00
2023-02-27T04:53:16.345Z,436.00
2023-02-27T04:54:16.373Z,436.00
2023-02-27T04:55:16.418Z,436.00
2023-02-27T04:56:16.479Z,436.00
2023-02-27T04:57:16.499Z,441.00
2023-02-27T04:58:16.562Z,440.00
2023-02-27T04:59:16.613Z,440.00
2023-02-27T05:00:16.657Z,440.00
2023-02-27T05:01:16.701Z,438.00
2023-02-27T05:02:16.830Z,439.00
2023-02-27T05:03:16.765Z,439.00
2023-02-27T05:04:16.834Z,437.00
2023-02-27T05:05:16.890Z,434.00
2023-02-27T05:06:16.943Z,431.00
2023-02-27T05:07:16.995Z,431.00
2023-02-27T05:08:17.070Z,429.00
2023-02-27T05:09:17.116Z,433.00
2023-02-27T05:10:17.185Z,434.00
2023-02-27T05:11:17.511Z,434.00
2023-02-27T05:12:17.248Z,434.00
2023-02-27T05:13:17.294Z,434.00
2023-02-27T05:14:17.367Z,432.00
2023-02-27T05:15:17.419Z,434.00
2023-02-27T05:16:17.472Z,434.00
2023-02-27T05:17:17.518Z,434.00
2023-02-27T05:18:17.634Z,435.00
2023-02-27T05:19:17.641Z,438.00
2023-02-27T05:20:17.688Z,438.00
2023-02-27T05:21:17.749Z,439.00
2023-02-27T05:22:17.799Z,439.00
2023-02-27T05:23:17.867Z,437.00
2023-02-27T05:24:17.924Z,437.00
2023-02-27T05:25:17.997Z,438.00
2023-02-27T05:26:18.075Z,438.00
2023-02-27T05:27:18.093Z,438.00
2023-02-27T05:28:18.194Z,437.00
2023-02-27T05:29:18.224Z,436.00
2023-02-27T05:30:18.266Z,436.00
2023-02-27T05:31:18.342Z,438.00
2023-02-27T05:32:18.398Z,436.00
2023-02-27T05:33:18.416Z,435.00
2023-02-27T05:34:19.357Z,434.00
2023-02-27T05:35:18.568Z,433.00
2023-02-27T05:36:18.610Z,434.00
2023-02-27T05:37:18.667Z,433.00
2023-02-27T05:38:18.737Z,433.00
2023-02-27T05:39:18.760Z,433.00
2023-02-27T05:40:18.876Z,432.00
2023-02-27T05:41:18.919Z,431.00
2023-02-27T05:42:18.989Z,431.00
2023-02-27T05:43:19.000Z,430.00
2023-02-27T05:44:19.073Z,431.00
2023-02-27T05:45:19.099Z,432.00
2023-02-27T05:46:19.231Z,432.00
2023-02-27T05:47:19.251Z,431.00
2023-02-27T05:57:19.821Z,429.00
2023-02-27T05:58:19.887Z,428.00
2023-02-27T05:59:19.928Z,427.00
2023-02-27T06:46:39.381Z,552.00
2023-02-27T09:24:46.694Z,1116.00
2023-02-27T09:29:46.720Z,879.00
2023-02-27T09:32:46.551Z,748.00
2023-02-27T09:33:46.546Z,697.00
2023-02-27T09:34:46.689Z,674.00
2023-02-27T09:35:46.700Z,654.00
2023-02-27T09:36:46.806Z,624.00
2023-02-27T09:37:47.613Z,599.00
2023-02-27T09:38:47.265Z,590.00
2023-02-27T09:39:47.979Z,579.00
2023-02-27T09:40:46.999Z,568.00
2023-02-27T09:41:47.066Z,556.00
2023-02-27T09:42:47.140Z,550.00
2023-02-27T09:43:47.246Z,547.00
2023-02-27T09:44:47.682Z,541.00
2023-02-27T09:45:47.388Z,531.00
2023-02-27T09:46:47.372Z,522.00
2023-02-27T09:47:47.509Z,510.00
2023-02-27T09:48:48.524Z,499.00
2023-02-27T09:49:48.531Z,651.00
2023-02-27T09:50:47.796Z,784.00
2023-02-27T09:51:47.861Z,778.00
2023-02-27T09:52:47.927Z,780.00
2023-02-27T09:53:48.006Z,758.00
2023-02-27T09:54:48.072Z,738.00
2023-02-27T09:55:48.145Z,735.00
2023-02-27T09:56:48.264Z,745.00
2023-02-27T09:57:48.325Z,742.00
2023-02-27T09:58:48.367Z,727.00
2023-02-27T09:59:48.509Z,721.00
2023-02-27T10:00:48.527Z,729.00
2023-02-27T10:01:48.696Z,729.00
2023-02-27T10:02:48.664Z,731.00
2023-02-27T10:03:48.729Z,732.00
2023-02-27T10:04:48.820Z,744.00
2023-02-27T10:05:48.908Z,741.00
2023-02-27T10:06:48.977Z,737.00
2023-02-27T10:07:49.034Z,727.00
2023-02-27T10:08:49.163Z,721.00
2023-02-27T10:09:49.259Z,715.00
2023-02-27T10:10:49.297Z,711.00
2023-02-27T10:11:49.353Z,712.00
2023-02-27T10:12:49.430Z,711.00
2023-02-27T10:13:49.522Z,710.00
2023-02-27T10:14:49.723Z,718.00
2023-02-27T10:15:49.735Z,724.00
2023-02-27T10:16:49.885Z,730.00
2023-02-27T10:17:49.877Z,739.00
2023-02-27T10:18:51.912Z,743.00
2023-02-27T10:19:51.106Z,808.00
2023-02-27T10:20:52.179Z,799.00
2023-02-27T10:21:51.719Z,805.00
2023-02-27T10:22:51.881Z,903.00
2023-02-27T10:23:51.390Z,911.00
2023-02-27T10:24:50.630Z,914.00
2023-02-27T10:25:51.453Z,911.00
2023-02-27T10:26:51.272Z,975.00
2023-02-27T10:27:51.952Z,992.00
2023-02-27T10:28:51.850Z,1001.00
2023-02-27T10:29:53.092Z,1034.00
2023-02-27T10:30:52.438Z,1053.00
2023-02-27T10:31:52.305Z,1050.00
2023-02-27T10:32:50.844Z,1049.00
2023-02-27T10:33:50.861Z,1054.00
2023-02-27T10:34:50.861Z,1065.00
2023-02-27T10:35:50.896Z,1073.00
2023-02-27T10:36:50.911Z,1095.00
2023-02-27T10:37:50.984Z,1108.00
2023-02-27T10:38:50.951Z,1125.00
2023-02-27T10:39:50.953Z,1151.00
2023-02-27T10:40:51.229Z,1164.00
2023-02-27T10:41:51.003Z,1158.00
2023-02-27T10:42:51.134Z,996.00
2023-02-27T10:43:51.010Z,953.00
2023-02-27T10:44:51.051Z,947.00
2023-02-27T10:45:51.338Z,995.00
2023-02-27T10:46:52.235Z,1021.00
2023-02-27T10:47:51.090Z,1088.00
2023-02-27T10:48:51.116Z,1061.00
2023-02-27T10:49:51.129Z,1073.00
2023-02-27T10:50:51.223Z,1079.00
2023-02-27T10:51:51.215Z,1187.00
2023-02-27T10:52:51.176Z,1214.00
2023-02-27T10:53:51.194Z,1192.00
2023-02-27T10:54:52.228Z,1181.00
2023-02-27T10:55:51.302Z,1245.00
2023-02-27T10:56:51.811Z,1243.00
2023-02-27T10:57:51.263Z,1056.00
2023-02-27T10:58:51.274Z,996.00
2023-02-27T10:59:51.278Z,984.00
2023-02-27T11:00:51.323Z,991.00
2023-02-27T11:01:51.406Z,1112.00
2023-02-27T11:02:51.348Z,1116.00
2023-02-27T11:03:51.335Z,1167.00
2023-02-27T11:04:51.338Z,1149.00
2023-02-27T11:05:51.749Z,1132.00
2023-02-27T11:06:51.369Z,1119.00
2023-02-27T11:07:51.389Z,1150.00
2023-02-27T11:08:52.389Z,1115.00
2023-02-27T11:09:53.254Z,1118.00
2023-02-27T11:10:51.352Z,1169.00
2023-02-27T11:11:51.615Z,1086.00
2023-02-27T11:12:51.416Z,1117.00
2023-02-27T11:13:51.391Z,1125.00
2023-02-27T11:14:51.388Z,1126.00
2023-02-27T11:15:51.451Z,1098.00
2023-02-27T11:16:51.434Z,1130.00
2023-02-27T11:17:51.513Z,1152.00
2023-02-27T11:18:51.472Z,1161.00
2023-02-27T11:19:51.465Z,1162.00
2023-02-27T11:20:51.527Z,1119.00
2023-02-27T11:21:51.505Z,1131.00
2023-02-27T11:22:51.551Z,1135.00
2023-02-27T11:25:51.554Z,1103.00
2023-02-27T11:26:51.594Z,1112.00
2023-02-27T11:27:51.579Z,1119.00
2023-02-27T11:28:51.594Z,1136.00
2023-02-27T11:29:51.605Z,1144.00
2023-02-27T11:31:51.703Z,1141.00
2023-02-27T11:32:51.703Z,1162.00
2023-02-27T11:33:51.744Z,1171.00
2023-02-27T11:34:51.765Z,1149.00
2023-02-27T11:35:57.008Z,1141.00
2023-02-27T11:36:52.815Z,1059.00
2023-02-27T11:37:51.843Z,1022.00
2023-02-27T11:38:51.838Z,1074.00
2023-02-27T11:39:51.832Z,1034.00
2023-02-27T11:40:51.911Z,1082.00
2023-02-27T11:41:52.262Z,1005.00
2023-02-27T11:42:51.973Z,994.00
2023-02-27T11:43:52.064Z,999.00
2023-02-27T11:44:52.129Z,993.00
2023-02-27T11:46:17.649Z,942.00
2023-02-27T11:46:53.298Z,917.00
2023-02-27T11:47:52.209Z,892.00
2023-02-27T11:48:52.232Z,889.00
2023-02-27T11:49:52.244Z,891.00
2023-02-27T11:50:52.267Z,882.00
2023-02-27T11:51:52.788Z,863.00
2023-02-27T11:52:52.402Z,854.00
2023-02-27T11:53:52.371Z,839.00
2023-02-27T11:54:52.430Z,829.00
2023-02-27T11:55:52.421Z,827.00
2023-02-27T11:56:52.782Z,837.00
2023-02-27T11:57:52.439Z,868.00
2023-02-27T11:58:52.501Z,895.00
2023-02-27T11:59:52.535Z,898.00
2023-02-27T12:00:52.611Z,904.00
2023-02-27T12:01:52.782Z,912.00
2023-02-27T12:02:52.663Z,920.00
2023-02-27T12:03:52.721Z,929.00
2023-02-27T12:04:52.743Z,938.00
2023-02-27T12:06:53.276Z,964.00
2023-02-27T12:07:54.353Z,979.00
2023-02-27T12:08:52.908Z,998.00
2023-02-27T12:09:52.933Z,1028.00
2023-02-27T12:10:54.177Z,1048.00
2023-02-27T12:12:52.989Z,1064.00
2023-02-27T12:13:52.983Z,1069.00
2023-02-27T12:14:53.067Z,1131.00
2023-02-27T12:15:53.070Z,1139.00
2023-02-27T15:18:56.463Z,682.00
2023-02-27T15:19:56.454Z,679.00
2023-02-27T15:20:56.465Z,676.00
2023-02-27T15:21:56.515Z,682.00
2023-02-27T15:22:56.544Z,687.00
2023-02-27T15:23:56.557Z,702.00
2023-02-27T15:24:56.632Z,713.00
2023-02-27T15:25:56.612Z,712.00
2023-02-27T15:26:56.668Z,713.00
2023-02-27T15:27:56.687Z,713.00
2023-02-27T15:28:56.765Z,710.00
2023-02-27T15:29:56.777Z,709.00
2023-02-27T15:30:56.828Z,709.00
2023-02-27T15:31:56.836Z,708.00
2023-02-27T15:32:56.854Z,703.00
2023-02-27T15:33:56.829Z,701.00
2023-02-27T15:34:56.861Z,702.00
2023-02-27T15:35:57.026Z,700.00
2023-02-27T15:36:56.933Z,698.00
2023-02-27T15:37:56.976Z,698.00
2023-02-27T15:38:56.983Z,698.00
2023-02-27T15:39:57.032Z,695.00
2023-02-27T15:40:57.054Z,694.00
2023-02-27T15:41:57.049Z,694.00
2023-02-27T15:42:57.120Z,695.00
2023-02-27T15:43:57.142Z,695.00
2023-02-27T15:44:57.126Z,692.00
2023-02-27T15:45:57.148Z,689.00
2023-02-27T15:46:57.199Z,688.00
2023-02-27T15:47:57.216Z,686.00
2023-02-27T15:48:57.251Z,684.00
2023-02-27T15:49:57.280Z,683.00
2023-02-27T15:50:57.316Z,681.00
2023-02-27T15:51:57.323Z,678.00
2023-02-27T15:52:57.342Z,676.00
2023-02-27T15:53:57.381Z,675.00
2023-02-27T15:54:57.410Z,674.00
2023-02-27T15:55:57.467Z,674.00
2023-02-27T15:56:57.476Z,674.00
2023-02-27T15:58:03.130Z,672.00
2023-02-27T15:59:00.860Z,671.00
2023-02-27T15:59:57.488Z,669.00
2023-02-27T16:00:57.532Z,669.00
2023-02-27T16:01:57.551Z,669.00
2023-02-27T16:02:57.631Z,670.00
2023-02-27T16:03:57.556Z,673.00
2023-02-27T16:04:57.552Z,672.00
2023-02-27T16:05:57.605Z,670.00
2023-02-27T16:06:57.564Z,668.00
2023-02-27T16:07:57.612Z,668.00
2023-02-27T16:08:57.599Z,666.00
2023-02-27T16:09:57.590Z,663.00
2023-02-27T16:10:57.586Z,663.00
2023-02-27T16:11:57.624Z,664.00
2023-02-27T16:12:57.666Z,666.00
2023-02-27T16:13:57.638Z,665.00
2023-02-27T16:14:57.609Z,661.00
2023-02-27T16:15:57.642Z,661.00
2023-02-27T16:16:57.622Z,664.00
2023-02-27T16:17:57.652Z,663.00
2023-02-27T16:18:57.696Z,662.00
2023-02-27T16:19:57.718Z,661.00
2023-02-27T16:20:57.728Z,663.00
2023-02-27T16:21:57.670Z,663.00
2023-02-27T16:22:57.702Z,663.00
2023-02-27T16:49:57.919Z,626.00
2023-02-27T16:50:57.939Z,624.00
2023-02-27T16:51:57.916Z,622.00
2023-02-27T16:52:57.934Z,622.00
2023-02-27T16:53:57.948Z,623.00
2023-02-27T16:54:57.976Z,622.00
2023-02-27T16:55:57.971Z,621.00
2023-02-27T16:56:57.981Z,619.00
2023-02-27T16:57:57.977Z,617.00
2023-02-27T16:58:57.998Z,618.00
2023-02-27T16:59:58.004Z,616.00
2023-02-27T17:00:58.089Z,619.00
2023-02-27T17:01:58.053Z,618.00
2023-02-27T17:02:58.034Z,613.00
2023-02-27T17:03:58.084Z,613.00
2023-02-27T17:04:58.123Z,614.00
2023-02-27T17:05:58.069Z,613.00
2023-02-27T17:06:58.067Z,612.00
2023-02-27T17:07:58.110Z,608.00
2023-02-27T17:08:58.167Z,605.00
2023-02-27T17:09:58.116Z,604.00
2023-02-27T17:10:58.143Z,603.00
2023-02-27T17:11:58.157Z,603.00
2023-02-27T17:12:58.173Z,603.00
2023-02-27T17:13:58.179Z,605.00
2023-02-27T17:14:58.172Z,606.00
2023-02-27T17:15:58.207Z,606.00
2023-02-27T17:16:58.929Z,606.00
2023-02-27T17:17:58.326Z,605.00
2023-02-27T17:18:58.372Z,606.00
2023-02-27T17:19:58.386Z,605.00
2023-02-27T17:20:58.452Z,605.00
2023-02-27T17:21:58.458Z,605.00
2023-02-27T17:22:58.548Z,603.00
2023-02-27T17:23:58.572Z,601.00
2023-02-27T17:24:58.603Z,599.00
2023-02-27T17:25:58.669Z,599.00
2023-02-27T17:26:58.703Z,596.00
2023-02-27T17:27:58.745Z,595.00
2023-02-27T17:28:58.732Z,594.00
2023-02-27T17:29:58.825Z,594.00
2023-02-27T17:30:58.860Z,594.00
2023-02-27T17:31:58.837Z,596.00
2023-02-27T17:33:00.692Z,595.00
2023-02-27T17:33:58.864Z,591.00
2023-02-27T17:34:58.858Z,586.00
2023-02-27T17:35:58.872Z,585.00
2023-02-27T17:36:58.871Z,586.00
2023-02-27T17:37:58.889Z,584.00
2023-02-27T17:38:58.919Z,585.00
2023-02-27T17:39:59.027Z,586.00
2023-02-27T17:40:58.921Z,585.00
2023-02-27T17:41:58.969Z,586.00
2023-02-27T17:42:58.936Z,587.00
2023-02-27T17:43:58.978Z,585.00
2023-02-27T17:44:58.972Z,582.00
2023-02-27T17:45:58.992Z,578.00
2023-02-27T17:46:58.984Z,576.00
2023-02-27T17:47:59.048Z,573.00
2023-02-27T17:48:58.999Z,574.00
2023-02-27T17:49:59.040Z,574.00
2023-02-27T17:50:59.060Z,574.00
2023-02-27T17:51:59.009Z,572.00
2023-02-27T17:52:59.083Z,570.00
2023-02-27T17:53:59.063Z,568.00
2023-02-27T17:54:59.070Z,569.00
2023-02-27T17:55:59.091Z,570.00
2023-02-27T17:56:59.101Z,567.00
2023-02-27T17:57:59.095Z,562.00
2023-02-27T17:58:59.131Z,560.00
2023-02-27T17:59:59.114Z,560.00
2023-02-27T18:00:59.187Z,561.00
2023-02-27T18:01:59.261Z,562.00
2023-02-27T18:02:59.251Z,562.00
2023-02-27T18:03:59.199Z,560.00
2023-02-27T18:04:59.223Z,557.00
2023-02-27T18:05:59.235Z,553.00
2023-02-27T18:06:59.213Z,552.00
2023-02-27T18:07:59.274Z,549.00
2023-02-27T18:08:59.248Z,552.00
2023-02-27T18:09:59.258Z,553.00
2023-02-27T18:10:59.262Z,554.00
2023-02-27T18:11:59.258Z,555.00
2023-02-27T18:12:59.265Z,553.00
2023-02-27T18:13:59.284Z,554.00
2023-02-27T18:14:59.316Z,552.00
2023-02-27T18:15:59.430Z,550.00
2023-02-27T18:16:59.384Z,549.00
2023-02-27T18:17:59.348Z,552.00
2023-02-27T18:18:59.366Z,549.00
2023-02-27T18:19:59.363Z,548.00
2023-02-27T18:20:59.490Z,545.00
2023-02-27T18:21:59.368Z,542.00
2023-02-27T18:22:59.368Z,541.00
2023-02-27T18:23:59.388Z,543.00
2023-02-27T18:24:59.416Z,546.00
2023-02-27T18:25:59.392Z,546.00
2023-02-27T18:26:59.398Z,545.00
2023-02-27T18:27:59.406Z,544.00
2023-02-27T18:28:59.409Z,540.00
2023-02-27T18:29:59.434Z,540.00
2023-02-27T18:30:59.557Z,540.00
2023-02-27T18:31:59.514Z,540.00
2023-02-27T18:32:59.479Z,541.00
2023-02-27T18:33:59.520Z,541.00
2023-02-27T18:34:59.515Z,542.00
2023-02-27T18:35:59.573Z,541.00
2023-02-27T18:36:59.545Z,539.00
2023-02-27T18:37:59.558Z,538.00
2023-02-27T18:38:59.608Z,538.00
2023-02-27T18:39:59.673Z,542.00
2023-02-27T18:40:59.717Z,542.00
2023-02-27T20:48:06.476Z,489.00
2023-02-27T20:49:06.493Z,489.00
2023-02-27T20:50:06.575Z,489.00
2023-02-27T20:51:06.644Z,489.00
2023-02-27T20:52:06.720Z,491.00
2023-02-27T20:53:06.768Z,492.00
2023-02-27T20:54:06.891Z,493.00
2023-02-27T20:55:06.918Z,493.00
2023-02-27T20:56:06.961Z,495.00
2023-02-27T20:57:07.009Z,493.00
2023-02-27T20:58:07.051Z,491.00
2023-02-27T20:59:07.122Z,490.00
2023-02-27T21:00:07.138Z,489.00
2023-02-27T21:01:07.208Z,489.00
2023-02-27T21:02:07.237Z,488.00
2023-02-27T21:03:07.296Z,487.00
2023-02-27T21:04:07.516Z,487.00
2023-02-27T21:05:07.536Z,488.00
2023-02-27T21:06:07.498Z,490.00
2023-02-27T21:07:07.549Z,491.00
2023-02-27T21:08:07.626Z,491.00
2023-02-27T21:09:07.701Z,488.00
2023-02-27T21:10:07.745Z,491.00
2023-02-27T21:11:07.845Z,493.00
2023-02-27T21:12:07.865Z,490.00
2023-02-27T21:13:07.944Z,490.00
2023-02-27T21:14:08.031Z,489.00
2023-02-27T21:15:08.088Z,487.00
2023-02-27T21:16:08.158Z,484.00
2023-02-27T21:17:08.226Z,481.00
2023-02-27T21:18:08.291Z,482.00
2023-02-27T21:19:08.316Z,482.00
2023-02-27T21:20:08.392Z,481.00
2023-02-27T21:21:08.537Z,480.00
2023-02-27T21:22:08.547Z,481.00
2023-02-27T21:23:08.587Z,481.00
2023-02-27T21:24:08.688Z,481.00
2023-02-27T21:25:08.725Z,482.00
2023-02-27T21:26:08.802Z,484.00
2023-02-27T21:27:08.884Z,483.00
2023-02-27T21:28:08.953Z,484.00
2023-02-27T21:29:09.017Z,486.00
2023-02-27T21:30:09.065Z,486.00
2023-02-27T21:31:09.224Z,487.00
2023-02-27T21:32:09.310Z,486.00
2023-02-27T21:33:09.302Z,486.00
2023-02-27T21:34:09.367Z,484.00
2023-02-27T21:35:09.395Z,481.00
2023-02-27T21:36:09.506Z,479.00
2023-02-27T21:37:09.593Z,477.00
2023-02-27T21:38:09.610Z,478.00
2023-02-27T21:39:09.703Z,478.00
2023-02-27T21:40:09.770Z,478.00
2023-02-27T21:41:11.604Z,478.00
2023-02-27T21:42:09.918Z,478.00
2023-02-27T21:43:09.986Z,479.00
2023-02-27T21:44:10.022Z,481.00
2023-02-27T21:45:10.087Z,482.00
2023-02-27T21:46:10.177Z,483.00
2023-02-27T21:47:10.426Z,483.00
2023-02-27T21:48:10.302Z,482.00
2023-02-27T21:49:10.368Z,482.00
2023-02-27T21:50:10.396Z,482.00
2023-02-27T21:51:10.466Z,483.00
2023-02-27T21:52:10.533Z,484.00
2023-02-27T21:53:10.577Z,483.00
2023-02-27T21:54:10.637Z,482.00
2023-02-27T21:55:10.732Z,481.00
2023-02-27T21:56:10.757Z,482.00
2023-02-27T21:57:10.865Z,482.00
2023-02-27T21:58:10.928Z,483.00
2023-02-27T21:59:10.964Z,482.00
2023-02-27T22:00:11.043Z,480.00
2023-02-27T22:01:11.141Z,480.00
2023-02-27T22:02:11.145Z,479.00
2023-02-27T22:03:11.222Z,480.00
2023-02-27T22:04:11.298Z,478.00
2023-02-27T22:05:11.336Z,477.00
2023-02-27T22:06:11.418Z,478.00
2023-02-27T22:07:11.599Z,477.00
2023-02-27T22:08:11.523Z,473.00
2023-02-27T22:09:11.601Z,471.00
2023-02-27T22:10:11.663Z,472.00
2023-02-27T22:11:11.679Z,475.00
2023-02-27T22:12:11.758Z,474.00
2023-02-27T22:13:11.850Z,473.00
2023-02-27T22:14:11.897Z,473.00
2023-02-27T22:15:11.914Z,467.00
2023-02-27T22:16:12.038Z,468.00
2023-02-27T22:17:12.083Z,469.00
2023-02-27T22:18:12.372Z,468.00
2023-02-27T22:19:12.199Z,469.00
2023-02-27T22:20:12.245Z,468.00
2023-02-27T22:21:12.303Z,469.00